Accueil
METAR-TAF:

METAR-TAF

Aéroports :

Île Christmas, Kiribati

Aéroport international Cassidy

latitude: 01-59N, longitude: 157-29W, altitude: 3 m

Observation

Le bulletin a été fait il y a 48 minutes, à 21:00 UTC
Vent 18 kt de sud-est
Température 28°C
Humidité 74%
Pression 1007 hPa
Visibilité 10 km ou plus
Quelques nuages à une hauteur de 2000 ft

METAR: PLCH 222100Z 14018KT 9999 FEW020 28/23 Q1007

Heure: 11:48 (21:48 UTC)

Prévision

Le bulletin a été fait il y a 4 heures et 45 minutes, à 17:03 UTC
Prévision valable du 22 à 18 UTC au 23 à 18 UTC
Vent 12 kt de sud-est
Visibilité 10 km ou plus
Nuages épars à une hauteur de 2000 ft

TAF: PLCH 221703Z 2218/2318 14012KT 9999 SCT020

Observations et prévisions météorologiques de plus de 4000 aéroports (messages METAR et TAF).

Les stations disponibles sont représentées par des disques jaunes et rouges sur la carte.

Passer la souris dessus pour voir le nom de la station.

Cliquer dessus pour voir les observations et prévisions météorologiques.

Pour changer de carte: cliquez sur les boutons verts avec une croix noire pour zoomer, sur le bouton vert avec un tiret pour effectuer un zoom arrière, ou sur les flèches vertes pour les cartes adjacentes.


METAR-TAF: